Time;durP1;ratioP1;P1;durP2;ratioP2;P2;SDS_P1;SDS_P2;PMS_P1;PMS_P2;Temp;Humidity;BMP_temperature;BMP_pressure;BME280_temperature;BME280_humidity;BME280_pressure;Samples;Min_cycle;Max_cycle;Signal;HPM_P1;HPM_P2
2023/03/08 00:01:12;;;;;;;7.13;3.20;;;;;;;-146.27;100.00;48395.59;5075840;28;20034;-73
2023/03/08 00:03:37;;;;;;;6.22;3.70;;;;;;;-146.27;100.00;48439.41;5090281;28;20032;-74
2023/03/08 00:06:04;;;;;;;5.63;3.13;;;;;;;-146.27;100.00;48437.44;5083559;28;20044;-73
2023/03/08 00:08:30;;;;;;;5.57;3.63;;;;;;;-146.27;100.00;48413.53;5088550;28;20039;-73
2023/03/08 00:10:55;;;;;;;8.40;3.65;;;;;;;-146.27;100.00;48407.56;5084765;28;20032;-74
2023/03/08 00:13:20;;;;;;;7.20;3.70;;;;;;;-146.27;100.00;48421.50;5090153;28;20025;-74
2023/03/08 00:15:46;;;;;;;9.27;3.75;;;;;;;-146.27;100.00;48351.78;5077310;28;20029;-73
2023/03/08 00:18:11;;;;;;;7.05;3.80;;;;;;;-146.27;100.00;48403.56;5090132;28;20476;-74
2023/03/08 00:20:37;;;;;;;11.95;4.32;;;;;;;-146.27;100.00;48429.47;5092991;28;20028;-74
2023/03/08 00:23:02;;;;;;;5.20;3.47;;;;;;;-146.27;100.00;48405.56;5093264;28;20378;-72
2023/03/08 00:25:27;;;;;;;8.43;3.70;;;;;;;-146.27;100.00;48405.56;5090474;28;20044;-75
2023/03/08 00:27:53;;;;;;;11.00;3.70;;;;;;;-146.27;100.00;48411.53;5092639;28;20103;-74
2023/03/08 00:30:18;;;;;;;6.57;3.80;;;;;;;-146.27;100.00;48435.44;5089088;28;20020;-73
2023/03/08 00:32:44;;;;;;;4.90;3.47;;;;;;;-146.27;100.00;48411.53;5087320;28;20385;-74
2023/03/08 00:35:09;;;;;;;6.10;4.00;;;;;;;-146.27;100.00;48415.53;5092344;28;20028;-74
2023/03/08 00:37:35;;;;;;;5.25;3.10;;;;;;;-146.27;100.00;48441.41;5090847;28;20398;-73
2023/03/08 00:40:00;;;;;;;4.45;3.15;;;;;;;-146.27;100.00;48423.50;5084086;28;20024;-74
2023/03/08 00:42:26;;;;;;;9.77;3.20;;;;;;;-146.27;100.00;48431.47;5086826;28;20027;-73
2023/03/08 00:44:51;;;;;;;11.43;4.70;;;;;;;-146.27;100.00;48405.56;5088593;28;20487;-73
2023/03/08 00:47:17;;;;;;;12.25;3.67;;;;;;;-146.27;100.00;48429.47;5077316;28;20077;-72
2023/03/08 00:49:43;;;;;;;8.85;4.25;;;;;;;-146.27;100.00;48435.44;5083383;28;20059;-73
2023/03/08 00:52:09;;;;;;;6.63;3.55;;;;;;;-146.27;100.00;48445.41;5088728;28;20102;-73
2023/03/08 00:54:34;;;;;;;8.55;3.70;;;;;;;-146.27;100.00;48407.56;5091800;28;20035;-74
2023/03/08 00:57:00;;;;;;;7.43;3.67;;;;;;;-146.27;100.00;48397.59;5088417;28;20368;-74
2023/03/08 00:59:25;;;;;;;7.72;4.57;;;;;;;-146.27;100.00;48387.63;5089736;28;20071;-73
2023/03/08 01:01:51;;;;;;;9.52;3.75;;;;;;;-146.27;100.00;48423.50;5080660;28;20016;-73
2023/03/08 01:04:16;;;;;;;9.93;3.97;;;;;;;-146.27;100.00;48427.47;5087238;28;20024;-73
2023/03/08 01:06:42;;;;;;;6.28;3.72;;;;;;;-146.27;100.00;48419.50;5087272;28;20036;-73
2023/03/08 01:09:08;;;;;;;6.13;3.53;;;;;;;-146.27;100.00;48461.34;5087344;28;20028;-73
2023/03/08 01:11:35;;;;;;;8.05;3.10;;;;;;;-146.27;100.00;48455.34;5083020;28;20092;-74
2023/03/08 01:14:01;;;;;;;4.35;3.22;;;;;;;-146.27;100.00;48391.63;5090641;28;20020;-73
2023/03/08 01:16:29;;;;;;;5.07;3.70;;;;;;;-146.27;100.00;48421.50;5079063;28;20350;-74
2023/03/08 01:18:56;;;;;;;8.23;3.58;;;;;;;-146.27;100.00;48419.50;5081759;28;20024;-74
2023/03/08 01:21:22;;;;;;;7.47;3.53;;;;;;;-146.27;100.00;48427.47;5089888;28;20024;-73
2023/03/08 01:23:47;;;;;;;9.70;3.10;;;;;;;-146.27;100.00;48391.63;5092209;28;20369;-74
2023/03/08 01:26:15;;;;;;;6.45;3.50;;;;;;;-146.27;100.00;48449.38;5090599;28;20400;-73
2023/03/08 01:28:41;;;;;;;11.63;4.18;;;;;;;-146.27;100.00;48423.50;5089782;28;20035;-74
2023/03/08 01:31:11;;;;;;;10.30;3.50;;;;;;;-146.27;100.00;48467.31;5086839;28;20023;-73
2023/03/08 01:33:37;;;;;;;7.07;3.15;;;;;;;-146.27;100.00;48427.47;5090869;28;20090;-73
2023/03/08 01:36:07;;;;;;;9.88;3.20;;;;;;;-146.27;100.00;48425.47;5091447;28;20031;-72
2023/03/08 01:38:33;;;;;;;8.10;3.20;;;;;;;-146.27;100.00;48459.34;5091188;28;20074;-74
2023/03/08 01:41:01;;;;;;;6.40;2.20;;;;;;;-146.27;100.00;48379.66;5090944;28;20475;-73
2023/03/08 01:43:29;;;;;;;4.15;1.63;;;;;;;-146.27;100.00;48441.41;5092578;28;20039;-74
2023/03/08 01:46:05;;;;;;;2.17;0.65;;;;;;;-146.27;100.00;48395.59;5084695;28;20078;-74
2023/03/08 01:48:37;;;;;;;3.45;0.45;;;;;;;-146.27;100.00;48421.50;5078254;28;20111;-74
2023/03/08 01:51:03;;;;;;;1.58;0.60;;;;;;;-146.27;100.00;48429.47;5092292;28;20073;-73
2023/03/08 01:53:31;;;;;;;1.02;0.60;;;;;;;-146.27;100.00;48409.53;5088996;28;20057;-74
2023/03/08 01:55:56;;;;;;;2.78;0.55;;;;;;;-146.27;100.00;48439.41;5091054;28;20059;-74
2023/03/08 01:58:22;;;;;;;2.42;0.60;;;;;;;-146.27;100.00;48415.53;5089912;28;20078;-74
2023/03/08 02:00:47;;;;;;;0.98;0.70;;;;;;;-146.27;100.00;48397.59;5090414;28;20038;-73
2023/03/08 02:03:13;;;;;;;0.63;0.30;;;;;;;-146.27;100.00;48419.50;5093637;28;20107;-73
2023/03/08 02:05:41;;;;;;;4.93;0.55;;;;;;;-146.27;100.00;48433.44;5095036;28;20093;-73
2023/03/08 02:08:07;;;;;;;1.67;0.40;;;;;;;-146.27;100.00;48439.41;5093736;28;20482;-75
2023/03/08 02:10:33;;;;;;;0.20;0.20;;;;;;;-146.27;100.00;48457.34;5084099;28;20028;-74
2023/03/08 02:12:59;;;;;;;1.27;0.88;;;;;;;-146.27;100.00;48403.56;5090264;28;20020;-73
2023/03/08 02:15:24;;;;;;;5.28;0.45;;;;;;;-146.27;100.00;48463.31;5082145;28;20050;-73
2023/03/08 02:17:50;;;;;;;3.72;1.00;;;;;;;-146.27;100.00;48435.44;5088788;28;20027;-73
2023/03/08 02:20:31;;;;;;;1.75;0.55;;;;;;;-146.27;100.00;48447.38;5087360;28;20491;-74
2023/03/08 02:23:26;;;;;;;1.75;0.32;;;;;;;-146.27;100.00;48415.53;5093773;28;20051;-72
2023/03/08 02:25:59;;;;;;;1.98;0.73;;;;;;;-146.27;100.00;48411.53;5072922;28;20403;-75
2023/03/08 02:28:26;;;;;;;4.50;1.43;;;;;;;-146.27;100.00;48419.50;5091566;28;20070;-75
2023/03/08 02:30:52;;;;;;;6.35;1.52;;;;;;;-146.27;100.00;48415.53;5087923;28;20348;-74
2023/03/08 02:33:18;;;;;;;4.75;2.20;;;;;;;-146.27;100.00;48437.44;5093719;28;20038;-73
2023/03/08 02:35:44;;;;;;;10.77;3.80;;;;;;;-146.27;100.00;48439.41;5092622;28;20114;-73
2023/03/08 02:38:11;;;;;;;12.45;3.60;;;;;;;-146.27;100.00;48403.56;5091643;28;20028;-73
2023/03/08 02:40:37;;;;;;;5.10;3.83;;;;;;;-146.27;100.00;48405.56;5089259;28;20089;-73
2023/03/08 02:43:03;;;;;;;6.72;3.92;;;;;;;-146.27;100.00;48439.41;5093392;28;20037;-74
2023/03/08 02:45:28;;;;;;;9.10;4.63;;;;;;;-146.27;100.00;48459.34;5094749;28;20367;-74
2023/03/08 02:47:53;;;;;;;8.40;4.18;;;;;;;-146.27;100.00;48443.41;5093288;28;20039;-73
2023/03/08 02:50:19;;;;;;;7.25;4.35;;;;;;;-146.27;100.00;48423.50;5092695;28;20028;-75
2023/03/08 02:52:44;;;;;;;5.40;3.80;;;;;;;-146.27;100.00;48425.47;5095525;28;20032;-74
2023/03/08 02:55:10;;;;;;;8.23;4.68;;;;;;;-146.27;100.00;48407.56;5078549;28;20076;-73
2023/03/08 02:57:35;;;;;;;8.45;4.40;;;;;;;-146.27;100.00;48423.50;5095080;28;20108;-74
2023/03/08 03:00:01;;;;;;;10.90;4.15;;;;;;;-146.27;100.00;48453.38;5086103;28;20024;-74
2023/03/08 03:02:26;;;;;;;6.82;4.07;;;;;;;-146.27;100.00;48411.53;5085156;28;20134;-74
2023/03/08 03:04:52;;;;;;;5.32;3.63;;;;;;;-146.27;100.00;48419.50;5095002;28;20039;-74
2023/03/08 03:07:17;;;;;;;5.85;3.95;;;;;;;-146.27;100.00;48479.25;5095261;28;20047;-74
2023/03/08 03:09:42;;;;;;;14.07;4.80;;;;;;;-146.27;100.00;48433.44;5090816;28;20054;-74
2023/03/08 03:12:08;;;;;;;12.00;4.53;;;;;;;-146.27;100.00;48399.59;5087301;28;20016;-74
2023/03/08 03:14:33;;;;;;;8.30;4.55;;;;;;;-146.27;100.00;48421.50;5092213;28;20024;-74
2023/03/08 03:16:59;;;;;;;8.13;4.32;;;;;;;-146.27;100.00;48423.50;5094866;28;20111;-75
2023/03/08 03:19:24;;;;;;;7.07;4.65;;;;;;;-146.27;100.00;48461.34;5080158;28;20039;-73
2023/03/08 03:21:50;;;;;;;9.70;4.95;;;;;;;-146.27;100.00;48403.56;5083760;28;20510;-72
2023/03/08 03:24:15;;;;;;;8.93;3.95;;;;;;;-146.27;100.00;48415.53;5093201;28;20402;-73
2023/03/08 03:26:40;;;;;;;6.95;4.38;;;;;;;-146.27;100.00;48403.56;5084449;28;20025;-73
2023/03/08 03:29:06;;;;;;;6.22;4.85;;;;;;;-146.27;100.00;48397.59;5094264;28;20091;-74
2023/03/08 03:31:31;;;;;;;6.82;4.57;;;;;;;-146.27;100.00;48455.34;5093022;28;20024;-73
2023/03/08 03:33:57;;;;;;;11.85;4.50;;;;;;;-146.27;100.00;48421.50;5092541;28;20032;-74
2023/03/08 03:36:23;;;;;;;6.25;4.13;;;;;;;-146.27;100.00;48421.50;5082584;28;20038;-73
2023/03/08 03:38:49;;;;;;;7.70;3.78;;;;;;;-146.27;100.00;48435.44;5089484;28;20020;-73
2023/03/08 03:41:18;;;;;;;6.50;4.15;;;;;;;-146.27;100.00;48413.53;5076814;28;20032;-73
2023/03/08 03:43:45;;;;;;;7.82;4.25;;;;;;;-146.27;100.00;48403.56;5082001;28;20058;-73
2023/03/08 03:46:13;;;;;;;9.27;4.47;;;;;;;-146.27;100.00;48439.41;5080353;28;20028;-74
2023/03/08 03:48:39;;;;;;;7.38;4.38;;;;;;;-146.27;100.00;48429.47;5088939;28;20034;-73
2023/03/08 03:51:08;;;;;;;8.20;4.20;;;;;;;-146.27;100.00;48407.56;5090656;28;20016;-73
2023/03/08 03:53:34;;;;;;;9.27;4.22;;;;;;;-146.27;100.00;48445.41;5091927;28;20039;-74
2023/03/08 03:56:06;;;;;;;6.85;4.07;;;;;;;-146.27;100.00;48405.56;5090682;28;20129;-72
2023/03/08 03:58:32;;;;;;;7.70;3.88;;;;;;;-146.27;100.00;48443.41;5092189;28;20368;-73
2023/03/08 04:00:57;;;;;;;10.32;4.65;;;;;;;-146.27;100.00;48443.41;5089709;28;20073;-74
2023/03/08 04:03:23;;;;;;;11.50;4.88;;;;;;;-146.27;100.00;48427.47;5090126;28;20381;-73
2023/03/08 04:05:49;;;;;;;9.27;4.18;;;;;;;-146.27;100.00;48419.50;5089777;28;20369;-73
2023/03/08 04:08:14;;;;;;;9.20;4.55;;;;;;;-146.27;100.00;48453.38;5077165;28;20036;-72
2023/03/08 04:10:40;;;;;;;6.97;4.50;;;;;;;-146.27;100.00;48403.56;5082018;28;20039;-74
2023/03/08 04:13:05;;;;;;;7.82;4.93;;;;;;;-146.27;100.00;48443.41;5085600;28;20031;-73
2023/03/08 04:15:30;;;;;;;6.88;5.28;;;;;;;-146.27;100.00;48437.44;5093729;28;20074;-73
2023/03/08 04:17:56;;;;;;;9.82;5.30;;;;;;;-146.27;100.00;48407.56;5089546;28;20106;-75
2023/03/08 04:20:22;;;;;;;8.50;5.50;;;;;;;-146.27;100.00;48415.53;5076615;28;20025;-73
2023/03/08 04:22:47;;;;;;;11.35;5.68;;;;;;;-146.27;100.00;48435.44;5080398;28;20040;-73
2023/03/08 04:25:13;;;;;;;12.30;6.65;;;;;;;-146.27;100.00;48421.50;5091588;28;20352;-73
2023/03/08 04:27:38;;;;;;;9.52;6.60;;;;;;;-146.27;100.00;48397.59;5090151;28;20028;-74
2023/03/08 04:30:04;;;;;;;15.07;7.65;;;;;;;-146.27;100.00;48449.38;5084588;28;20052;-73
2023/03/08 04:32:31;;;;;;;16.70;9.02;;;;;;;-146.27;100.00;48395.59;5089142;28;20044;-74
2023/03/08 04:34:56;;;;;;;16.73;9.25;;;;;;;-146.27;100.00;48427.47;5093523;28;20020;-73
2023/03/08 04:37:22;;;;;;;22.83;10.82;;;;;;;-146.27;100.00;48409.53;5093486;28;20486;-75
2023/03/08 04:39:48;;;;;;;15.43;9.27;;;;;;;-146.27;100.00;48447.38;5074658;28;20040;-73
2023/03/08 04:42:13;;;;;;;14.70;9.77;;;;;;;-146.27;100.00;48455.34;5082035;28;20054;-73
2023/03/08 04:44:39;;;;;;;15.52;9.98;;;;;;;-146.27;100.00;48439.41;5077042;28;20035;-72
2023/03/08 04:47:05;;;;;;;17.70;11.10;;;;;;;-146.27;100.00;48423.50;5091923;28;20352;-72
2023/03/08 04:49:30;;;;;;;23.73;12.32;;;;;;;-146.27;100.00;48407.56;5084550;28;20126;-74
2023/03/08 04:51:55;;;;;;;18.13;11.35;;;;;;;-146.27;100.00;48447.38;5086110;28;20403;-74
2023/03/08 04:54:21;;;;;;;33.22;14.57;;;;;;;-146.27;100.00;48411.53;5073583;28;20021;-73
2023/03/08 04:56:46;;;;;;;26.75;14.88;;;;;;;-146.27;100.00;48441.41;5081889;28;20048;-73
2023/03/08 04:59:11;;;;;;;27.38;14.75;;;;;;;-146.27;100.00;48401.56;5089370;28;20029;-73
2023/03/08 05:01:37;;;;;;;33.72;15.85;;;;;;;-146.27;100.00;48429.47;5077546;28;20059;-73
2023/03/08 05:04:02;;;;;;;34.20;16.42;;;;;;;-146.27;100.00;48425.47;5083116;28;20234;-73
2023/03/08 05:06:28;;;;;;;31.73;16.88;;;;;;;-146.27;100.00;48419.50;5086743;28;20101;-74
2023/03/08 05:08:54;;;;;;;38.33;19.63;;;;;;;-146.27;100.00;48419.50;5090717;28;20020;-75
2023/03/08 05:11:28;;;;;;;43.10;18.95;;;;;;;-146.27;100.00;48451.38;5076498;28;20028;-74
2023/03/08 05:13:56;;;;;;;48.90;20.02;;;;;;;-146.27;100.00;48381.66;5081853;28;20388;-73
2023/03/08 05:16:22;;;;;;;40.28;20.48;;;;;;;-146.27;100.00;48459.34;5092224;28;20020;-72
2023/03/08 05:18:47;;;;;;;47.53;22.02;;;;;;;-146.27;100.00;48467.31;5092572;28;20124;-73
2023/03/08 05:21:18;;;;;;;46.92;19.80;;;;;;;-146.27;100.00;48387.63;5082331;28;20115;-73
2023/03/08 05:23:45;;;;;;;50.63;23.88;;;;;;;-146.27;100.00;48423.50;5079340;28;20064;-73
2023/03/08 05:26:12;;;;;;;56.45;22.60;;;;;;;-146.27;100.00;48423.50;5089939;28;20058;-74
2023/03/08 05:28:38;;;;;;;40.67;20.48;;;;;;;-146.27;100.00;48419.50;5092462;28;20439;-73
2023/03/08 05:31:09;;;;;;;54.63;24.00;;;;;;;-146.27;100.00;48443.41;5084725;28;20031;-73
2023/03/08 05:33:35;;;;;;;57.55;22.85;;;;;;;-146.27;100.00;48399.59;5085763;28;20028;-72
2023/03/08 05:36:01;;;;;;;53.20;23.60;;;;;;;-146.27;100.00;48411.53;5093467;28;20036;-74
2023/03/08 05:38:27;;;;;;;48.60;24.90;;;;;;;-146.27;100.00;48423.50;5098037;28;20035;-73
2023/03/08 05:40:53;;;;;;;58.67;25.88;;;;;;;-146.27;100.00;48433.44;5098757;28;20048;-73
2023/03/08 05:43:19;;;;;;;55.97;24.65;;;;;;;-146.27;100.00;48427.47;5098585;28;20104;-73
2023/03/08 05:46:03;;;;;;;53.13;23.67;;;;;;;-146.27;100.00;48411.53;5092370;28;20047;-74
2023/03/08 05:48:29;;;;;;;61.92;24.10;;;;;;;-146.27;100.00;48447.38;5097548;28;20160;-76
2023/03/08 05:50:55;;;;;;;60.38;26.17;;;;;;;-146.27;100.00;48407.56;5098940;28;20024;-75
2023/03/08 05:53:21;;;;;;;56.15;26.42;;;;;;;-146.27;100.00;48455.34;5097888;28;20508;-75
2023/03/08 05:55:47;;;;;;;60.25;24.35;;;;;;;-146.27;100.00;48387.63;5096870;28;20050;-75
2023/03/08 05:58:13;;;;;;;51.47;24.00;;;;;;;-146.27;100.00;48407.56;5091520;28;20688;-75
2023/03/08 06:00:38;;;;;;;57.13;24.52;;;;;;;-146.27;100.00;48415.53;5093670;28;20364;-75
2023/03/08 06:03:04;;;;;;;52.22;25.55;;;;;;;-146.27;100.00;48413.53;5088712;28;20035;-76
2023/03/08 06:05:31;;;;;;;69.68;26.10;;;;;;;-146.27;100.00;48431.47;5091966;28;20028;-75
2023/03/08 06:07:56;;;;;;;60.28;25.73;;;;;;;-146.27;100.00;48429.47;5078518;28;20035;-74
2023/03/08 06:10:22;;;;;;;53.20;24.48;;;;;;;-146.27;100.00;48447.38;5092483;28;20016;-75
2023/03/08 06:12:47;;;;;;;59.00;26.75;;;;;;;-146.27;100.00;48407.56;5095874;28;20030;-75
2023/03/08 06:15:13;;;;;;;62.75;25.65;;;;;;;-146.27;100.00;48419.50;5089058;28;20016;-76
2023/03/08 06:17:39;;;;;;;106.93;26.02;;;;;;;-146.27;100.00;48415.53;5096750;28;20016;-75
2023/03/08 06:20:06;;;;;;;55.95;24.40;;;;;;;-146.27;100.00;48435.44;5097495;28;20517;-74
2023/03/08 06:22:32;;;;;;;138.55;26.42;;;;;;;-146.27;100.00;48417.50;5098596;28;20107;-75
2023/03/08 06:24:57;;;;;;;109.07;27.27;;;;;;;-146.27;100.00;48447.38;5088473;28;20150;-76
2023/03/08 06:27:22;;;;;;;207.75;31.08;;;;;;;-146.27;100.00;48419.50;5096050;28;20031;-75
2023/03/08 06:29:49;;;;;;;93.93;28.60;;;;;;;-146.27;100.00;48443.41;5090017;28;20048;-76
2023/03/08 06:32:14;;;;;;;120.53;28.50;;;;;;;-146.27;100.00;48425.47;5091143;28;20103;-76
2023/03/08 06:34:40;;;;;;;247.15;33.38;;;;;;;-146.27;100.00;48421.50;5094696;28;20034;-75
2023/03/08 06:37:05;;;;;;;96.32;30.60;;;;;;;-146.27;100.00;48435.44;5094935;28;20419;-75
2023/03/08 06:39:31;;;;;;;116.03;32.33;;;;;;;-146.27;100.00;48403.56;5094350;28;20026;-76
2023/03/08 06:41:57;;;;;;;85.25;31.38;;;;;;;-146.27;100.00;48405.56;5088948;28;20440;-73
2023/03/08 06:44:23;;;;;;;90.47;30.38;;;;;;;-146.27;100.00;48409.53;5097122;28;20486;-74
2023/03/08 06:46:48;;;;;;;74.32;30.38;;;;;;;-146.27;100.00;48435.44;5097222;28;20114;-75
2023/03/08 06:49:13;;;;;;;131.10;33.08;;;;;;;-146.27;100.00;48443.41;5091586;28;20051;-73
2023/03/08 06:51:39;;;;;;;76.75;30.90;;;;;;;-146.27;100.00;48439.41;5087012;28;20028;-74
2023/03/08 06:54:04;;;;;;;86.72;32.30;;;;;;;-146.27;100.00;48417.50;5089688;28;20028;-73
2023/03/08 06:56:30;;;;;;;78.47;30.95;;;;;;;-146.27;100.00;48419.50;5093011;28;20066;-73
2023/03/08 06:58:55;;;;;;;84.38;33.97;;;;;;;-146.27;100.00;48455.34;5091226;28;20039;-73
2023/03/08 07:01:21;;;;;;;99.28;33.45;;;;;;;-146.27;100.00;48417.50;5086792;28;20028;-72
2023/03/08 07:03:47;;;;;;;125.25;34.22;;;;;;;-146.27;100.00;48457.34;5080759;28;20020;-72
2023/03/08 07:06:14;;;;;;;84.95;32.47;;;;;;;-146.27;100.00;48427.47;5085111;28;20119;-72
2023/03/08 07:08:40;;;;;;;99.30;32.83;;;;;;;-146.27;100.00;48419.50;5087846;28;20024;-73
2023/03/08 07:11:07;;;;;;;73.57;29.45;;;;;;;-146.27;100.00;48415.53;5083965;28;20373;-72
2023/03/08 07:13:33;;;;;;;81.25;32.90;;;;;;;-146.27;100.00;48403.56;5099648;28;20482;-74
2023/03/08 07:15:58;;;;;;;103.80;33.50;;;;;;;-146.27;100.00;48451.38;5092279;28;20031;-75
2023/03/08 07:18:24;;;;;;;93.75;35.28;;;;;;;-146.27;100.00;48409.53;5080881;28;20116;-73
2023/03/08 07:20:55;;;;;;;102.75;33.90;;;;;;;-146.27;100.00;48443.41;5085014;28;20028;-73
2023/03/08 07:23:21;;;;;;;84.20;35.35;;;;;;;-146.27;100.00;48435.44;5094482;28;20028;-72
2023/03/08 07:25:47;;;;;;;73.15;34.25;;;;;;;-146.27;100.00;48469.31;5089581;28;20026;-74
2023/03/08 07:28:12;;;;;;;84.55;34.05;;;;;;;-146.27;100.00;48439.41;5095771;28;20459;-74
2023/03/08 07:30:37;;;;;;;74.18;32.80;;;;;;;-146.27;100.00;48411.53;5093271;28;20420;-74
2023/03/08 07:33:03;;;;;;;83.82;34.72;;;;;;;-146.27;100.00;48439.41;5091790;28;20024;-73
2023/03/08 07:35:28;;;;;;;77.00;32.78;;;;;;;-146.27;100.00;48449.38;5093274;28;20024;-74
2023/03/08 07:37:54;;;;;;;77.30;33.47;;;;;;;-146.27;100.00;48461.34;5090291;28;20035;-73
2023/03/08 07:40:19;;;;;;;73.57;34.83;;;;;;;-146.27;100.00;48461.34;5081713;28;20112;-73
2023/03/08 07:42:45;;;;;;;77.55;33.00;;;;;;;-146.27;100.00;48459.34;5089313;28;20078;-73
2023/03/08 07:45:11;;;;;;;75.68;32.65;;;;;;;-146.27;100.00;48429.47;5093594;28;20073;-72
2023/03/08 07:47:37;;;;;;;74.50;32.25;;;;;;;-146.27;100.00;48441.41;5088973;28;20035;-73
2023/03/08 07:50:02;;;;;;;85.25;35.50;;;;;;;-146.27;100.00;48443.41;5085378;28;20170;-73
2023/03/08 07:52:29;;;;;;;81.68;35.78;;;;;;;-146.27;100.00;48415.53;5076975;28;20032;-74
2023/03/08 07:54:55;;;;;;;85.80;35.75;;;;;;;-146.27;100.00;48433.44;5084780;28;21991;-73
2023/03/08 07:57:20;;;;;;;76.53;33.67;;;;;;;-146.27;100.00;48447.38;5094254;28;20031;-73
2023/03/08 07:59:45;;;;;;;89.45;36.25;;;;;;;-146.27;100.00;48423.50;5089387;28;20409;-73
2023/03/08 08:02:12;;;;;;;90.75;34.10;;;;;;;-146.27;100.00;48455.34;5090521;28;20048;-74
2023/03/08 08:04:37;;;;;;;91.47;35.60;;;;;;;-146.27;100.00;48415.53;5087207;28;20039;-73
2023/03/08 08:07:03;;;;;;;96.47;37.00;;;;;;;-146.27;100.00;48427.47;5089382;28;20044;-74
2023/03/08 08:09:28;;;;;;;92.97;36.83;;;;;;;-146.27;100.00;48427.47;5080819;28;20047;-74
2023/03/08 08:11:53;;;;;;;98.88;38.53;;;;;;;-146.27;100.00;48399.59;5079152;28;20123;-74
2023/03/08 08:14:19;;;;;;;113.55;38.97;;;;;;;-146.27;100.00;48467.31;5086389;28;20026;-73
2023/03/08 08:16:44;;;;;;;92.93;35.40;;;;;;;-146.27;100.00;48409.53;5089094;28;20144;-73
2023/03/08 08:19:11;;;;;;;89.43;36.65;;;;;;;-146.27;100.00;48443.41;5090304;28;20520;-74
2023/03/08 08:21:37;;;;;;;100.13;37.08;;;;;;;-146.27;100.00;48441.41;5092201;28;20047;-73
2023/03/08 08:24:02;;;;;;;93.97;34.47;;;;;;;-146.27;100.00;48443.41;5092368;28;20055;-74
2023/03/08 08:26:28;;;;;;;97.93;36.92;;;;;;;-146.27;100.00;48441.41;5089641;28;20027;-73
2023/03/08 08:28:53;;;;;;;83.45;34.30;;;;;;;-146.27;100.00;48423.50;5088966;28;20114;-73
2023/03/08 08:31:27;;;;;;;90.47;34.95;;;;;;;-146.27;100.00;48449.38;5077478;28;20036;-74
2023/03/08 08:33:53;;;;;;;86.28;35.00;;;;;;;-146.27;100.00;48391.63;5077625;28;20036;-75
2023/03/08 08:36:19;;;;;;;76.53;32.03;;;;;;;-146.27;100.00;48433.44;5081314;28;20055;-74
2023/03/08 08:38:45;;;;;;;73.25;29.77;;;;;;;-146.27;100.00;48415.53;5085850;28;20055;-75
2023/03/08 08:41:14;;;;;;;90.15;33.20;;;;;;;-146.27;100.00;48411.53;5093700;28;20108;-76
2023/03/08 08:43:40;;;;;;;78.05;33.03;;;;;;;-146.27;100.00;48399.59;5093035;28;20487;-74
2023/03/08 08:46:05;;;;;;;71.82;29.60;;;;;;;-146.27;100.00;48439.41;5089855;28;20046;-74
2023/03/08 08:48:32;;;;;;;67.78;29.10;;;;;;;-146.27;100.00;48399.59;5092161;28;20479;-72
2023/03/08 08:50:58;;;;;;;62.95;28.45;;;;;;;-146.27;100.00;48411.53;5074384;28;20024;-73
2023/03/08 08:53:24;;;;;;;71.25;29.45;;;;;;;-146.27;100.00;48439.41;5091957;28;20123;-75
2023/03/08 08:55:49;;;;;;;64.93;28.70;;;;;;;-146.27;100.00;48443.41;5092012;28;20024;-74
2023/03/08 08:58:15;;;;;;;55.30;26.25;;;;;;;-146.27;100.00;48409.53;5092402;28;20111;-77
2023/03/08 09:00:41;;;;;;;62.60;24.65;;;;;;;-146.27;100.00;48435.44;5092513;28;20024;-78
2023/03/08 09:03:06;;;;;;;53.92;23.92;;;;;;;-146.27;100.00;48451.38;5092931;28;20032;-78
2023/03/08 09:05:33;;;;;;;47.30;22.25;;;;;;;-146.27;100.00;48437.44;5089101;28;20481;-78
2023/03/08 09:08:00;;;;;;;54.63;23.13;;;;;;;-146.27;100.00;48403.56;5084180;28;20026;-75
2023/03/08 09:10:31;;;;;;;51.15;21.02;;;;;;;-146.27;100.00;48413.53;5090731;28;20554;-76
2023/03/08 09:12:57;;;;;;;43.13;21.40;;;;;;;-146.27;100.00;48411.53;5077053;28;20056;-77
2023/03/08 09:15:23;;;;;;;49.35;21.35;;;;;;;-146.27;100.00;48423.50;5081586;28;20059;-78
2023/03/08 09:17:49;;;;;;;49.85;22.85;;;;;;;-146.27;100.00;48435.44;5093234;28;20110;-77
2023/03/08 09:20:15;;;;;;;47.88;22.67;;;;;;;-146.27;100.00;48399.59;5091641;28;20345;-78
2023/03/08 09:22:40;;;;;;;51.95;22.58;;;;;;;-146.27;100.00;48427.47;5085766;28;20024;-78
2023/03/08 09:25:08;;;;;;;52.58;23.20;;;;;;;-146.27;100.00;48419.50;5075365;28;21658;-76
2023/03/08 09:27:34;;;;;;;45.85;20.98;;;;;;;-146.27;100.00;48473.28;5080361;28;20392;-77
2023/03/08 09:29:59;;;;;;;46.00;20.98;;;;;;;-146.27;100.00;48391.63;5082069;28;20050;-76
2023/03/08 09:32:25;;;;;;;51.65;22.63;;;;;;;-146.27;100.00;48423.50;5090842;28;20032;-78
2023/03/08 09:34:51;;;;;;;47.10;21.95;;;;;;;-146.27;100.00;48461.34;5092743;28;20024;-76
2023/03/08 09:37:17;;;;;;;44.80;21.27;;;;;;;-146.27;100.00;48411.53;5092775;28;20036;-76
2023/03/08 09:39:43;;;;;;;39.35;19.13;;;;;;;-146.27;100.00;48421.50;5092875;28;20518;-76
2023/03/08 09:42:20;;;;;;;34.85;16.85;;;;;;;-146.27;100.00;48421.50;5092939;28;20024;-75
2023/03/08 09:45:09;;;;;;;35.55;16.83;;;;;;;-146.27;100.00;48419.50;5092757;28;20111;-76
2023/03/08 09:47:41;;;;;;;32.90;15.85;;;;;;;-146.27;100.00;48415.53;5092943;28;20070;-77
2023/03/08 09:50:14;;;;;;;26.17;14.60;;;;;;;-146.27;100.00;48397.59;5091853;28;20028;-78
2023/03/08 09:52:45;;;;;;;26.58;14.10;;;;;;;-146.27;100.00;48429.47;5090606;28;20115;-77
2023/03/08 09:55:29;;;;;;;26.52;14.23;;;;;;;-146.27;100.00;48443.41;5090102;28;20101;-77
2023/03/08 09:58:12;;;;;;;37.60;17.17;;;;;;;-146.27;100.00;48411.53;5092102;28;20079;-77
2023/03/08 10:00:40;;;;;;;33.70;16.30;;;;;;;-146.27;100.00;48389.63;5092410;28;20027;-76
2023/03/08 10:03:23;;;;;;;26.75;15.65;;;;;;;-146.27;100.00;48423.50;5078248;28;20035;-75
2023/03/08 10:05:48;;;;;;;29.50;14.55;;;;;;;-146.27;100.00;48413.53;5072159;28;20552;-77
2023/03/08 10:08:21;;;;;;;26.30;14.48;;;;;;;-146.27;100.00;48419.50;5077084;28;20052;-76
2023/03/08 10:10:55;;;;;;;32.58;16.20;;;;;;;-146.27;100.00;48411.53;5073985;28;20036;-78
2023/03/08 10:13:40;;;;;;;32.30;15.73;;;;;;;-146.27;100.00;48433.44;5072127;28;20448;-78
2023/03/08 10:16:11;;;;;;;26.10;14.00;;;;;;;-146.27;100.00;48411.53;5076051;28;20086;-77
2023/03/08 10:18:46;;;;;;;20.85;12.98;;;;;;;-146.27;100.00;48407.56;5072520;28;20424;-77
2023/03/08 10:21:16;;;;;;;27.05;14.13;;;;;;;-146.27;100.00;48409.53;5073114;28;20110;-78
2023/03/08 10:23:44;;;;;;;32.03;15.88;;;;;;;-146.27;100.00;48413.53;5088659;28;20406;-78
2023/03/08 10:26:12;;;;;;;31.52;15.93;;;;;;;-146.27;100.00;48379.66;5095547;28;20074;-77
2023/03/08 10:28:38;;;;;;;31.77;16.25;;;;;;;-146.27;100.00;48403.56;5086255;28;20028;-78
2023/03/08 10:31:25;;;;;;;35.17;16.00;;;;;;;-146.27;100.00;48437.44;5078039;28;20021;-76
2023/03/08 10:34:14;;;;;;;38.03;18.17;;;;;;;-146.27;100.00;48381.66;5075887;28;20085;-76
2023/03/08 10:36:51;;;;;;;33.35;17.00;;;;;;;-146.27;100.00;48451.38;5081970;28;20046;-76
2023/03/08 10:39:17;;;;;;;34.88;17.42;;;;;;;-146.27;100.00;48389.63;5082165;28;20028;-75
2023/03/08 10:41:47;;;;;;;36.72;16.80;;;;;;;-146.27;100.00;48391.63;5075503;28;20031;-77
2023/03/08 10:44:28;;;;;;;25.45;12.93;;;;;;;-146.27;98.34;48395.59;5076301;28;20040;-76
2023/03/08 10:46:54;;;;;;;24.48;12.20;;;;;;;-146.27;97.11;48423.50;5076866;28;20456;-78
2023/03/08 10:49:22;;;;;;;21.00;11.90;;;;;;;-146.27;97.80;48425.47;5075665;28;20017;-77
2023/03/08 10:51:58;;;;;;;22.38;11.70;;;;;;;-146.27;97.68;48403.56;5074122;28;20468;-75
2023/03/08 10:54:24;;;;;;;27.35;12.00;;;;;;;-146.27;98.16;48415.53;5079041;28;20036;-76
2023/03/08 10:57:00;;;;;;;28.40;11.98;;;;;;;-146.27;99.62;48405.56;5082787;28;20084;-76
2023/03/08 10:59:31;;;;;;;24.60;11.68;;;;;;;-146.27;99.22;48385.66;5081490;28;20036;-77